Tokuyama21century — JK5158 — position and weather

sailwx.info

Track history (hours):
 
Tides and Currents Weather Stations Pressure Air Temp Water Temp Dewpoint Dewpoint Depression Visibility Wind Speed Wind Dir Waves Ship Positions

Tokuyama21century

Last reported at 2018-Jun-25 06:44 UTC. Time now 2018-Jun-25 13:45 UTC.
Position N 34°24' E 134°13'.

Length 75 m; draft 6 m.

Type: Cargo ship. MMSI: 431400048.

Date/timePositionNaut miles runAvg speedWind from/ knotsBaromVisibWave heightAir tempDewpointWater temp
2018-Jun-25 06:44N 34°24' E 134°13'411.7
2018-Jun-25 06:24N 34°23' E 134°18'512.2
2018-Jun-25 05:58N 34°21' E 134°24'612.1
2018-Jun-25 05:30N 34°19' E 134°30'911.7
2018-Jun-25 04:44N 34°14' E 134°39'310.6
2018-Jun-25 04:24N 34°11' E 134°40'4 4.2
2018-Jun-25 03:33N 34°09' E 134°36'1 0.0
2018-Jun-24 03:05N 34°09' E 134°37'2 8.8
2018-Jun-24 02:53N 34°09' E 134°39'411.9
2018-Jun-24 02:30N 34°14' E 134°39'611.6
2018-Jun-24 01:59N 34°17' E 134°33'611.6
2018-Jun-24 01:30N 34°19' E 134°27'611.6
2018-Jun-24 01:00N 34°22' E 134°21'6 0.6
2018-Jun-23 14:32N 34°24' E 134°14'411.7
2018-Jun-23 14:11N 34°25' E 134°19'212.1
2018-Jun-23 14:00N 34°25' E 134°21'612.1
2018-Jun-23 13:30N 34°27' E 134°28'612.2
2018-Jun-23 13:00N 34°29' E 134°35'612.3
2018-Jun-23 12:30N 34°32' E 134°42'613.1
2018-Jun-23 12:00N 34°34' E 134°49'713.1
2018-Jun-23 11:30N 34°37' E 134°57'611.8
2018-Jun-23 11:00N 34°36' E 135°04'612.6
2018-Jun-23 10:30N 34°36' E 135°11'612.9
2018-Jun-23 10:00N 34°38' E 135°19'612.0
2018-Jun-23 09:30N 34°39' E 135°26'0 0.6
2018-Jun-23 09:00N 34°39' E 135°27'0 0.0
2018-Jun-23 08:30N 34°39' E 135°27'0 0.0
2018-Jun-23 08:00N 34°39' E 135°27'0 0.0
2018-Jun-23 07:30N 34°39' E 135°27'0 0.0
2018-Jun-23 07:00N 34°39' E 135°27'0 0.0
2018-Jun-23 06:30N 34°39' E 135°27'0 0.0
2018-Jun-23 05:54N 34°39' E 135°27'0 0.0
2018-Jun-23 05:30N 34°39' E 135°27'0 0.0
2018-Jun-23 05:00N 34°39' E 135°27'0 0.0
2018-Jun-23 04:30N 34°39' E 135°27'0 0.0
2018-Jun-23 03:54N 34°39' E 135°27'0 0.0
2018-Jun-23 03:30N 34°39' E 135°27'0 0.1
2018-Jun-23 03:00N 34°39' E 135°27'3 5.4
2018-Jun-23 02:30N 34°38' E 135°23'3 6.8
2018-Jun-23 02:00N 34°38' E 135°19'4 9.0
2018-Jun-23 01:30N 34°42' E 135°17'0 0.1
2018-Jun-23 01:00N 34°42' E 135°17'0 0.0
2018-Jun-23 00:30N 34°42' E 135°17'0 0.0
2018-Jun-23 00:00N 34°42' E 135°17'0 0.0
2018-Jun-22 23:30N 34°42' E 135°17'0 0.0
2018-Jun-22 23:00N 34°42' E 135°17'1 1.5
2018-Jun-22 22:29N 34°42' E 135°17'2 4.9
2018-Jun-22 22:00N 34°40' E 135°19'0 0.1
2018-Jun-22 21:29N 34°40' E 135°19'0 0.0
2018-Jun-22 20:59N 34°40' E 135°19'0 0.0
2018-Jun-22 20:29N 34°40' E 135°19'0 0.0
2018-Jun-22 19:59N 34°40' E 135°19'0 0.0
2018-Jun-22 19:29N 34°40' E 135°19'0 0.1
2018-Jun-22 18:59N 34°40' E 135°19'0 0.0
2018-Jun-22 18:29N 34°40' E 135°19'0 0.1
2018-Jun-22 17:53N 34°40' E 135°19'0 0.0
2018-Jun-22 17:23N 34°40' E 135°19'0 0.0
2018-Jun-22 16:59N 34°40' E 135°19'0 0.0
2018-Jun-22 16:29N 34°40' E 135°19'0 0.0
2018-Jun-22 15:59N 34°40' E 135°19'0 0.0
2018-Jun-22 15:29N 34°40' E 135°19'0 0.0
2018-Jun-22 14:53N 34°40' E 135°19'0 0.0
2018-Jun-22 14:29N 34°40' E 135°19'0 0.0
2018-Jun-22 13:41N 34°40' E 135°19'0 0.0
2018-Jun-22 13:29N 34°40' E 135°19'0 0.0
2018-Jun-22 12:59N 34°40' E 135°19'0 0.0
2018-Jun-22 12:29N 34°40' E 135°19'0 0.0
2018-Jun-22 11:59N 34°40' E 135°19'0 0.0
2018-Jun-22 11:29N 34°40' E 135°19'0 0.0
2018-Jun-22 10:59N 34°40' E 135°19'0 0.0
2018-Jun-22 10:23N 34°40' E 135°19'0 0.0
2018-Jun-22 09:59N 34°40' E 135°19'0 0.0
2018-Jun-22 09:29N 34°40' E 135°19'0 0.0
2018-Jun-22 08:59N 34°40' E 135°19'0 0.5
2018-Jun-22 08:30N 34°40' E 135°19'5 9.5
2018-Jun-22 08:00N 34°36' E 135°16'611.2
2018-Jun-22 07:30N 34°35' E 135°09'510.7
2018-Jun-22 07:00N 34°36' E 135°03'5 7.9
2018-Jun-22 06:22N 34°36' E 134°57'3 9.7
2018-Jun-22 06:00N 34°35' E 134°53'510.0
2018-Jun-22 05:30N 34°32' E 134°47'510.9
2018-Jun-22 05:00N 34°30' E 134°41'510.8
2018-Jun-22 04:30N 34°29' E 134°35'610.9
2018-Jun-22 03:58N 34°27' E 134°29'511.0
2018-Jun-22 03:29N 34°24' E 134°23'8 0.4
2018-Jun-21 07:35N 34°24' E 134°13'111.6
2018-Jun-21 07:30N 34°24' E 134°14'612.2
2018-Jun-21 07:00N 34°25' E 134°22'612.3
2018-Jun-21 06:30N 34°27' E 134°29'612.4
2018-Jun-21 06:01N 34°29' E 134°35'612.4
2018-Jun-21 05:30N 34°32' E 134°42'612.9
2018-Jun-21 05:00N 34°34' E 134°50'712.9
2018-Jun-21 04:30N 34°37' E 134°57'511.1
2018-Jun-21 04:00N 34°36' E 135°03'611.2
2018-Jun-21 03:31N 34°36' E 135°10'611.5
2018-Jun-21 03:00N 34°37' E 135°17'611.0
2018-Jun-21 02:28N 34°39' E 135°24'2 4.4
2018-Jun-21 02:00N 34°39' E 135°27'0 0.0
2018-Jun-21 01:21N 34°39' E 135°27'0 0.0
2018-Jun-21 00:57N 34°39' E 135°27'0 0.0
2018-Jun-21 00:27N 34°39' E 135°27'0 0.0
2018-Jun-20 23:57N 34°39' E 135°27'0 0.0
2018-Jun-20 23:27N 34°39' E 135°27'0 0.0
2018-Jun-20 22:51N 34°39' E 135°27'0 0.0
2018-Jun-20 22:27N 34°39' E 135°27'2 3.8
2018-Jun-20 22:00N 34°39' E 135°25'5 9.4
2018-Jun-20 21:30N 34°36' E 135°20'2 2.8
2018-Jun-20 20:55N 34°35' E 135°18'0 0.0
2018-Jun-20 20:19N 34°35' E 135°18'0 0.0
2018-Jun-20 19:52N 34°35' E 135°18'0 0.0
2018-Jun-20 19:19N 34°35' E 135°18'0 0.0
2018-Jun-20 18:55N 34°35' E 135°18'0 0.0
2018-Jun-20 18:25N 34°35' E 135°18'0 0.0
2018-Jun-20 17:58N 34°35' E 135°18'0 0.0
2018-Jun-20 17:28N 34°35' E 135°18'0 0.0
2018-Jun-20 16:55N 34°35' E 135°18'0 0.0
2018-Jun-20 16:25N 34°35' E 135°18'0 0.0
2018-Jun-20 15:55N 34°35' E 135°18'0 0.0
2018-Jun-20 15:19N 34°35' E 135°18'0 0.0
2018-Jun-20 14:55N 34°35' E 135°18'0 0.0
2018-Jun-20 14:28N 34°35' E 135°18'0 0.0
2018-Jun-20 13:52N 34°35' E 135°18'0 0.0
2018-Jun-20 13:28N 34°35' E 135°18'0 0.0
2018-Jun-20 12:55N 34°35' E 135°18'0 0.0
2018-Jun-20 12:25N 34°35' E 135°18'1 1.7
2018-Jun-20 12:00N 34°35' E 135°19'510.7
2018-Jun-20 11:30N 34°30' E 135°21'2 2.8
2018-Jun-20 10:53N 34°28' E 135°22'0 0.0
2018-Jun-20 10:29N 34°28' E 135°22'0 0.0
2018-Jun-20 09:59N 34°28' E 135°22'0 0.0
2018-Jun-20 09:29N 34°28' E 135°22'0 0.0
2018-Jun-20 08:53N 34°28' E 135°22'0 0.0
2018-Jun-20 08:29N 34°28' E 135°22'0 0.0
2018-Jun-20 08:01N 34°28' E 135°22'2 3.3
2018-Jun-20 07:30N 34°30' E 135°21'511.0
2018-Jun-20 07:00N 34°31' E 135°14'611.5
2018-Jun-20 06:30N 34°33' E 135°08'611.1
2018-Jun-20 06:01N 34°36' E 135°02'9 9.6
2018-Jun-20 05:07N 34°34' E 134°52'1 9.9
2018-Jun-20 05:00N 34°34' E 134°51'5 9.9
2018-Jun-20 04:30N 34°32' E 134°45'510.7
2018-Jun-20 04:00N 34°30' E 134°39'511.0
2018-Jun-20 03:31N 34°28' E 134°33'611.2
2018-Jun-20 03:01N 34°26' E 134°27'  
Track history (hours):
 
Tides and Currents Weather Stations Pressure Air Temp Water Temp Dewpoint Dewpoint Depression Visibility Wind Speed Wind Dir Waves Ship Positions

Tokuyama21century

Last reported at 2018-Jun-25 06:44 UTC. Time now 2018-Jun-25 13:45 UTC.
Position N 34°24' E 134°13'.

Length 75 m; draft 6 m.

Type: Cargo ship. MMSI: 431400048.

Date/timePositionNaut miles runAvg speedWind from/ knotsBaromVisibWave heightAir tempDewpointWater temp
2018-Jun-25 06:44N 34°24' E 134°13'411.7
2018-Jun-25 06:24N 34°23' E 134°18'512.2
2018-Jun-25 05:58N 34°21' E 134°24'612.1
2018-Jun-25 05:30N 34°19' E 134°30'911.7
2018-Jun-25 04:44N 34°14' E 134°39'310.6
2018-Jun-25 04:24N 34°11' E 134°40'4 4.2
2018-Jun-25 03:33N 34°09' E 134°36'1 0.0
2018-Jun-24 03:05N 34°09' E 134°37'2 8.8
2018-Jun-24 02:53N 34°09' E 134°39'411.9
2018-Jun-24 02:30N 34°14' E 134°39'611.6
2018-Jun-24 01:59N 34°17' E 134°33'611.6
2018-Jun-24 01:30N 34°19' E 134°27'611.6
2018-Jun-24 01:00N 34°22' E 134°21'6 0.6
2018-Jun-23 14:32N 34°24' E 134°14'411.7
2018-Jun-23 14:11N 34°25' E 134°19'212.1
2018-Jun-23 14:00N 34°25' E 134°21'612.1
2018-Jun-23 13:30N 34°27' E 134°28'612.2
2018-Jun-23 13:00N 34°29' E 134°35'612.3
2018-Jun-23 12:30N 34°32' E 134°42'613.1
2018-Jun-23 12:00N 34°34' E 134°49'713.1
2018-Jun-23 11:30N 34°37' E 134°57'611.8
2018-Jun-23 11:00N 34°36' E 135°04'612.6
2018-Jun-23 10:30N 34°36' E 135°11'612.9
2018-Jun-23 10:00N 34°38' E 135°19'612.0
2018-Jun-23 09:30N 34°39' E 135°26'0 0.6
2018-Jun-23 09:00N 34°39' E 135°27'0 0.0
2018-Jun-23 08:30N 34°39' E 135°27'0 0.0
2018-Jun-23 08:00N 34°39' E 135°27'0 0.0
2018-Jun-23 07:30N 34°39' E 135°27'0 0.0
2018-Jun-23 07:00N 34°39' E 135°27'0 0.0
2018-Jun-23 06:30N 34°39' E 135°27'0 0.0
2018-Jun-23 05:54N 34°39' E 135°27'0 0.0
2018-Jun-23 05:30N 34°39' E 135°27'0 0.0
2018-Jun-23 05:00N 34°39' E 135°27'0 0.0
2018-Jun-23 04:30N 34°39' E 135°27'0 0.0
2018-Jun-23 03:54N 34°39' E 135°27'0 0.0
2018-Jun-23 03:30N 34°39' E 135°27'0 0.1
2018-Jun-23 03:00N 34°39' E 135°27'3 5.4
2018-Jun-23 02:30N 34°38' E 135°23'3 6.8
2018-Jun-23 02:00N 34°38' E 135°19'4 9.0
2018-Jun-23 01:30N 34°42' E 135°17'0 0.1
2018-Jun-23 01:00N 34°42' E 135°17'0 0.0
2018-Jun-23 00:30N 34°42' E 135°17'0 0.0
2018-Jun-23 00:00N 34°42' E 135°17'0 0.0
2018-Jun-22 23:30N 34°42' E 135°17'0 0.0
2018-Jun-22 23:00N 34°42' E 135°17'1 1.5
2018-Jun-22 22:29N 34°42' E 135°17'2 4.9
2018-Jun-22 22:00N 34°40' E 135°19'0 0.1
2018-Jun-22 21:29N 34°40' E 135°19'0 0.0
2018-Jun-22 20:59N 34°40' E 135°19'0 0.0
2018-Jun-22 20:29N 34°40' E 135°19'0 0.0
2018-Jun-22 19:59N 34°40' E 135°19'0 0.0
2018-Jun-22 19:29N 34°40' E 135°19'0 0.1
2018-Jun-22 18:59N 34°40' E 135°19'0 0.0
2018-Jun-22 18:29N 34°40' E 135°19'0 0.1
2018-Jun-22 17:53N 34°40' E 135°19'0 0.0
2018-Jun-22 17:23N 34°40' E 135°19'0 0.0
2018-Jun-22 16:59N 34°40' E 135°19'0 0.0
2018-Jun-22 16:29N 34°40' E 135°19'0 0.0
2018-Jun-22 15:59N 34°40' E 135°19'0 0.0
2018-Jun-22 15:29N 34°40' E 135°19'0 0.0
2018-Jun-22 14:53N 34°40' E 135°19'0 0.0
2018-Jun-22 14:29N 34°40' E 135°19'0 0.0
2018-Jun-22 13:41N 34°40' E 135°19'0 0.0
2018-Jun-22 13:29N 34°40' E 135°19'0 0.0
2018-Jun-22 12:59N 34°40' E 135°19'0 0.0
2018-Jun-22 12:29N 34°40' E 135°19'0 0.0
2018-Jun-22 11:59N 34°40' E 135°19'0 0.0
2018-Jun-22 11:29N 34°40' E 135°19'0 0.0
2018-Jun-22 10:59N 34°40' E 135°19'0 0.0
2018-Jun-22 10:23N 34°40' E 135°19'0 0.0
2018-Jun-22 09:59N 34°40' E 135°19'0 0.0
2018-Jun-22 09:29N 34°40' E 135°19'0 0.0
2018-Jun-22 08:59N 34°40' E 135°19'0 0.5
2018-Jun-22 08:30N 34°40' E 135°19'5 9.5
2018-Jun-22 08:00N 34°36' E 135°16'611.2
2018-Jun-22 07:30N 34°35' E 135°09'510.7
2018-Jun-22 07:00N 34°36' E 135°03'5 7.9
2018-Jun-22 06:22N 34°36' E 134°57'3 9.7
2018-Jun-22 06:00N 34°35' E 134°53'510.0
2018-Jun-22 05:30N 34°32' E 134°47'510.9
2018-Jun-22 05:00N 34°30' E 134°41'510.8
2018-Jun-22 04:30N 34°29' E 134°35'610.9
2018-Jun-22 03:58N 34°27' E 134°29'511.0
2018-Jun-22 03:29N 34°24' E 134°23'8 0.4
2018-Jun-21 07:35N 34°24' E 134°13'111.6
2018-Jun-21 07:30N 34°24' E 134°14'612.2
2018-Jun-21 07:00N 34°25' E 134°22'612.3
2018-Jun-21 06:30N 34°27' E 134°29'612.4
2018-Jun-21 06:01N 34°29' E 134°35'612.4
2018-Jun-21 05:30N 34°32' E 134°42'612.9
2018-Jun-21 05:00N 34°34' E 134°50'712.9
2018-Jun-21 04:30N 34°37' E 134°57'511.1
2018-Jun-21 04:00N 34°36' E 135°03'611.2
2018-Jun-21 03:31N 34°36' E 135°10'611.5
2018-Jun-21 03:00N 34°37' E 135°17'611.0
2018-Jun-21 02:28N 34°39' E 135°24'2 4.4
2018-Jun-21 02:00N 34°39' E 135°27'0 0.0
2018-Jun-21 01:21N 34°39' E 135°27'0 0.0
2018-Jun-21 00:57N 34°39' E 135°27'0 0.0
2018-Jun-21 00:27N 34°39' E 135°27'0 0.0
2018-Jun-20 23:57N 34°39' E 135°27'0 0.0
2018-Jun-20 23:27N 34°39' E 135°27'0 0.0
2018-Jun-20 22:51N 34°39' E 135°27'0 0.0
2018-Jun-20 22:27N 34°39' E 135°27'2 3.8
2018-Jun-20 22:00N 34°39' E 135°25'5 9.4
2018-Jun-20 21:30N 34°36' E 135°20'2 2.8
2018-Jun-20 20:55N 34°35' E 135°18'0 0.0
2018-Jun-20 20:19N 34°35' E 135°18'0 0.0
2018-Jun-20 19:52N 34°35' E 135°18'0 0.0
2018-Jun-20 19:19N 34°35' E 135°18'0 0.0
2018-Jun-20 18:55N 34°35' E 135°18'0 0.0
2018-Jun-20 18:25N 34°35' E 135°18'0 0.0
2018-Jun-20 17:58N 34°35' E 135°18'0 0.0
2018-Jun-20 17:28N 34°35' E 135°18'0 0.0
2018-Jun-20 16:55N 34°35' E 135°18'0 0.0
2018-Jun-20 16:25N 34°35' E 135°18'0 0.0
2018-Jun-20 15:55N 34°35' E 135°18'0 0.0
2018-Jun-20 15:19N 34°35' E 135°18'0 0.0
2018-Jun-20 14:55N 34°35' E 135°18'0 0.0
2018-Jun-20 14:28N 34°35' E 135°18'0 0.0
2018-Jun-20 13:52N 34°35' E 135°18'0 0.0
2018-Jun-20 13:28N 34°35' E 135°18'0 0.0
2018-Jun-20 12:55N 34°35' E 135°18'0 0.0
2018-Jun-20 12:25N 34°35' E 135°18'1 1.7
2018-Jun-20 12:00N 34°35' E 135°19'510.7
2018-Jun-20 11:30N 34°30' E 135°21'2 2.8
2018-Jun-20 10:53N 34°28' E 135°22'0 0.0
2018-Jun-20 10:29N 34°28' E 135°22'0 0.0
2018-Jun-20 09:59N 34°28' E 135°22'0 0.0
2018-Jun-20 09:29N 34°28' E 135°22'0 0.0
2018-Jun-20 08:53N 34°28' E 135°22'0 0.0
2018-Jun-20 08:29N 34°28' E 135°22'0 0.0
2018-Jun-20 08:01N 34°28' E 135°22'2 3.3
2018-Jun-20 07:30N 34°30' E 135°21'511.0
2018-Jun-20 07:00N 34°31' E 135°14'611.5
2018-Jun-20 06:30N 34°33' E 135°08'611.1
2018-Jun-20 06:01N 34°36' E 135°02'9 9.6
2018-Jun-20 05:07N 34°34' E 134°52'1 9.9
2018-Jun-20 05:00N 34°34' E 134°51'5 9.9
2018-Jun-20 04:30N 34°32' E 134°45'510.7
2018-Jun-20 04:00N 34°30' E 134°39'511.0
2018-Jun-20 03:31N 34°28' E 134°33'611.2
2018-Jun-20 03:01N 34°26' E 134°27'  

Dump ship's entire track history